createdAt,value
2023-02-12T00:01:28.801Z,7.64
2023-02-12T00:03:57.942Z,7.65
2023-02-12T00:06:25.976Z,7.54
2023-02-12T00:08:56.260Z,7.48
2023-02-12T00:11:28.352Z,7.44
2023-02-12T00:13:57.627Z,7.46
2023-02-12T00:16:28.963Z,7.46
2023-02-12T00:18:58.392Z,7.48
2023-02-12T00:21:26.266Z,7.53
2023-02-12T00:23:54.064Z,7.53
2023-02-12T00:26:23.071Z,7.52
2023-02-12T00:28:52.668Z,7.54
2023-02-12T00:31:27.033Z,7.54
2023-02-12T00:33:59.886Z,7.40
2023-02-12T00:36:31.010Z,7.44
2023-02-12T00:39:00.667Z,7.43
2023-02-12T00:41:28.728Z,7.44
2023-02-12T00:43:56.642Z,7.44
2023-02-12T00:46:24.397Z,7.45
2023-02-12T00:48:52.165Z,7.48
2023-02-12T00:51:21.657Z,7.46
2023-02-12T00:53:49.424Z,7.45
2023-02-12T00:56:17.239Z,7.40
2023-02-12T00:58:44.861Z,7.33
2023-02-12T01:01:12.588Z,7.35
2023-02-12T01:03:40.549Z,7.36
2023-02-12T01:06:08.460Z,7.39
2023-02-12T01:08:36.162Z,7.40
2023-02-12T01:11:06.206Z,7.43
2023-02-12T01:13:35.214Z,7.41
2023-02-12T01:16:22.523Z,7.40
2023-02-12T01:18:55.688Z,7.41
2023-02-12T01:21:27.579Z,7.43
2023-02-12T01:23:56.797Z,7.45
2023-02-12T01:26:26.304Z,7.42
2023-02-12T01:29:01.500Z,7.45
2023-02-12T01:31:34.874Z,7.43
2023-02-12T01:34:03.682Z,7.39
2023-02-12T01:36:32.259Z,7.39
2023-02-12T01:39:00.061Z,7.41
2023-02-12T01:41:32.574Z,7.43
2023-02-12T01:44:12.779Z,7.44
2023-02-12T01:46:41.130Z,7.47
2023-02-12T01:49:17.528Z,7.47
2023-02-12T01:51:50.392Z,7.47
2023-02-12T01:54:21.163Z,7.41
2023-02-12T01:56:49.465Z,7.43
2023-02-12T01:59:19.029Z,7.45
2023-02-12T02:01:46.823Z,7.47
2023-02-12T02:04:20.376Z,7.47
2023-02-12T02:06:54.574Z,7.43
2023-02-12T02:09:24.366Z,7.42
2023-02-12T02:12:15.263Z,7.43
2023-02-12T02:14:46.273Z,7.45
2023-02-12T02:17:39.412Z,7.46
2023-02-12T02:20:22.811Z,7.45
2023-02-12T02:23:28.699Z,7.43
2023-02-12T02:26:52.329Z,7.44
2023-02-12T02:29:59.848Z,7.42
2023-02-12T02:32:46.973Z,7.40
2023-02-12T02:35:41.899Z,7.36
2023-02-12T02:38:30.009Z,7.35
2023-02-12T02:41:03.797Z,7.34
2023-02-12T02:43:42.808Z,7.36
2023-02-12T02:46:26.835Z,7.36
2023-02-12T02:49:00.898Z,7.37
2023-02-12T02:51:34.007Z,7.34
2023-02-12T02:54:12.666Z,7.37
2023-02-12T02:56:45.629Z,7.35
2023-02-12T02:59:38.379Z,7.28
2023-02-12T03:02:23.964Z,7.26
2023-02-12T03:05:02.412Z,7.27
2023-02-12T03:07:42.519Z,7.28
2023-02-12T03:10:28.192Z,7.27
2023-02-12T03:13:17.082Z,7.26
2023-02-12T03:15:55.002Z,7.25
2023-02-12T03:18:29.844Z,7.28
2023-02-12T03:21:13.107Z,7.28
2023-02-12T03:23:53.323Z,7.27
2023-02-12T03:26:33.281Z,7.26
2023-02-12T03:29:00.987Z,7.28
2023-02-12T03:32:36.314Z,7.28
2023-02-12T03:35:22.180Z,7.28
2023-02-12T03:38:08.967Z,7.29
2023-02-12T03:41:06.943Z,7.28
2023-02-12T03:43:43.639Z,7.26
2023-02-12T03:46:22.368Z,7.27
2023-02-12T03:49:01.231Z,7.28
2023-02-12T03:51:42.040Z,7.23
2023-02-12T03:54:12.336Z,7.19
2023-02-12T03:56:49.241Z,7.16
2023-02-12T03:59:17.762Z,7.15
2023-02-12T04:01:46.051Z,7.18
2023-02-12T04:04:14.587Z,7.17
2023-02-12T04:06:42.731Z,7.15
2023-02-12T04:09:13.440Z,7.07
2023-02-12T04:12:04.000Z,7.05
2023-02-12T04:14:45.873Z,7.03
2023-02-12T04:17:33.503Z,7.02
2023-02-12T04:20:20.211Z,7.02
2023-02-12T04:23:25.172Z,7.01
2023-02-12T04:26:08.512Z,7.04
2023-02-12T04:29:07.014Z,7.04
2023-02-12T04:31:56.060Z,7.04
2023-02-12T04:34:44.667Z,6.79
2023-02-12T04:37:20.758Z,6.79
2023-02-12T04:39:49.880Z,6.90
2023-02-12T04:42:17.614Z,6.89
2023-02-12T04:44:45.525Z,6.93
2023-02-12T04:47:15.706Z,6.83
2023-02-12T04:49:43.630Z,6.88
2023-02-12T04:52:11.302Z,6.88
2023-02-12T04:54:39.201Z,6.91
2023-02-12T04:57:06.886Z,6.94
2023-02-12T04:59:34.541Z,6.97
2023-02-12T05:02:02.725Z,7.00
2023-02-12T05:04:30.404Z,7.00
2023-02-12T05:06:57.995Z,7.02
2023-02-12T05:09:25.698Z,7.02
2023-02-12T05:11:53.309Z,7.03
2023-02-12T05:14:21.080Z,7.01
2023-02-12T05:16:48.687Z,7.02
2023-02-12T05:19:16.400Z,6.98
2023-02-12T05:21:44.034Z,6.96
2023-02-12T05:24:11.731Z,6.96
2023-02-12T05:26:40.117Z,6.97
2023-02-12T05:29:07.910Z,6.98
2023-02-12T05:31:36.121Z,6.98
2023-02-12T05:34:03.826Z,7.00
2023-02-12T05:36:31.504Z,7.01
2023-02-12T05:39:02.280Z,7.02
2023-02-12T05:41:35.115Z,7.03
2023-02-12T05:44:04.728Z,7.04
2023-02-12T05:46:32.918Z,7.04
2023-02-12T05:49:00.667Z,7.06
2023-02-12T05:51:28.563Z,7.04
2023-02-12T05:54:01.791Z,7.04
2023-02-12T05:56:36.338Z,6.98
2023-02-12T05:59:08.197Z,6.90
2023-02-12T06:01:41.658Z,6.90
2023-02-12T06:04:28.068Z,6.92
2023-02-12T06:06:57.027Z,6.93
2023-02-12T06:09:24.771Z,6.94
2023-02-12T06:11:52.886Z,6.95
2023-02-12T06:14:21.560Z,6.96
2023-02-12T06:16:51.881Z,6.97
2023-02-12T06:19:20.509Z,6.96
2023-02-12T06:21:48.305Z,6.95
2023-02-12T06:24:17.437Z,6.95
2023-02-12T06:26:45.972Z,6.93
2023-02-12T06:29:13.689Z,6.91
2023-02-12T06:31:41.647Z,6.90
2023-02-12T06:34:12.195Z,6.88
2023-02-12T06:36:44.488Z,6.88
2023-02-12T06:39:14.781Z,6.88
2023-02-12T06:41:43.897Z,6.89
2023-02-12T06:44:13.874Z,6.89
2023-02-12T06:46:42.001Z,6.89
2023-02-12T06:49:13.252Z,6.86
2023-02-12T06:51:41.481Z,6.80
2023-02-12T06:54:17.924Z,6.80
2023-02-12T06:56:45.794Z,6.79
2023-02-12T06:59:16.068Z,6.81
2023-02-12T07:01:44.404Z,6.83
2023-02-12T07:04:12.324Z,6.83
2023-02-12T07:06:40.352Z,6.84
2023-02-12T07:09:08.048Z,6.87
2023-02-12T07:11:38.473Z,6.89
2023-02-12T07:14:07.756Z,6.86
2023-02-12T07:16:35.582Z,6.86
2023-02-12T07:19:03.395Z,6.90
2023-02-12T07:21:32.179Z,6.92
2023-02-12T07:24:00.151Z,6.95
2023-02-12T07:26:27.915Z,6.95
2023-02-12T07:28:58.794Z,6.99
2023-02-12T07:31:26.813Z,7.00
2023-02-12T07:33:57.230Z,7.02
2023-02-12T07:36:28.156Z,7.03
2023-02-12T07:38:57.222Z,7.04
2023-02-12T07:41:31.979Z,7.06
2023-02-12T07:44:10.251Z,7.10
2023-02-12T07:46:48.179Z,7.14
2023-02-12T07:49:20.069Z,7.18
2023-02-12T07:51:49.675Z,7.20
2023-02-12T07:54:17.478Z,7.18
2023-02-12T07:56:46.984Z,7.22
2023-02-12T07:59:18.750Z,7.22
2023-02-12T08:01:49.492Z,7.23
2023-02-12T08:04:21.342Z,7.23
2023-02-12T08:06:54.860Z,7.26
2023-02-12T08:09:27.110Z,7.27
2023-02-12T08:11:55.196Z,7.28
2023-02-12T08:14:23.365Z,7.32
2023-02-12T08:16:52.423Z,7.34
2023-02-12T08:19:24.751Z,7.37
2023-02-12T08:21:57.060Z,7.39
2023-02-12T08:24:25.991Z,7.40
2023-02-12T08:26:54.124Z,7.41
2023-02-12T08:29:29.042Z,7.38
2023-02-12T08:32:02.916Z,7.41
2023-02-12T08:34:35.704Z,7.42
2023-02-12T08:37:06.126Z,7.44
2023-02-12T08:39:33.863Z,7.44
2023-02-12T08:42:01.879Z,7.45
2023-02-12T08:44:29.874Z,7.47
2023-02-12T08:46:57.823Z,7.49
2023-02-12T08:49:28.930Z,7.52
2023-02-12T08:51:58.669Z,7.59
2023-02-12T08:54:29.279Z,7.61
2023-02-12T08:57:02.925Z,7.64
2023-02-12T08:59:31.160Z,7.66
2023-02-12T09:01:59.468Z,7.69
2023-02-12T09:04:29.519Z,7.70
2023-02-12T09:06:57.232Z,7.75
2023-02-12T09:09:25.185Z,7.77
2023-02-12T09:11:53.025Z,7.84
2023-02-12T09:14:24.453Z,7.85
2023-02-12T09:16:55.116Z,7.88
2023-02-12T09:19:23.468Z,7.93
2023-02-12T09:21:55.784Z,7.96
2023-02-12T09:24:26.125Z,7.99
2023-02-12T09:26:53.996Z,8.01
2023-02-12T09:29:21.650Z,8.05
2023-02-12T09:31:49.500Z,8.09
2023-02-12T09:34:17.192Z,8.11
2023-02-12T09:36:44.876Z,8.14
2023-02-12T09:39:12.480Z,8.20
2023-02-12T09:42:18.131Z,8.23
2023-02-12T09:45:20.833Z,8.23
2023-02-12T09:48:03.046Z,8.26
2023-02-12T09:50:49.479Z,8.29
2023-02-12T09:53:23.775Z,8.29
2023-02-12T09:55:51.668Z,8.33
2023-02-12T09:58:44.253Z,8.35
2023-02-12T10:01:18.391Z,8.40
2023-02-12T10:03:50.177Z,8.43
2023-02-12T10:06:28.969Z,8.48
2023-02-12T10:09:21.516Z,8.54
2023-02-12T10:12:01.724Z,8.59
2023-02-12T10:14:51.158Z,8.60
2023-02-12T10:17:45.391Z,8.62
2023-02-12T10:20:54.050Z,8.64
2023-02-12T10:23:35.025Z,8.59
2023-02-12T10:26:26.009Z,8.57
2023-02-12T10:28:54.948Z,8.59
2023-02-12T10:31:37.598Z,8.63
2023-02-12T10:34:25.822Z,8.67
2023-02-12T10:37:14.325Z,8.70
2023-02-12T10:39:49.596Z,8.68
2023-02-12T10:42:50.187Z,8.70
2023-02-12T10:45:26.957Z,8.72
2023-02-12T10:48:06.172Z,8.75
2023-02-12T10:50:50.670Z,8.75
2023-02-12T10:53:26.549Z,8.78
2023-02-12T10:56:12.673Z,8.80
2023-02-12T10:58:50.971Z,8.78
2023-02-12T11:01:37.992Z,8.79
2023-02-12T11:04:24.108Z,8.86
2023-02-12T11:07:00.691Z,8.90
2023-02-12T11:09:47.231Z,8.94
2023-02-12T11:12:35.963Z,8.90
2023-02-12T11:15:17.573Z,8.91
2023-02-12T11:18:05.407Z,8.90
2023-02-12T11:20:50.217Z,8.90
2023-02-12T11:23:32.521Z,8.93
2023-02-12T11:26:22.689Z,8.94
2023-02-12T11:28:59.714Z,8.98
2023-02-12T11:31:32.282Z,8.99
2023-02-12T11:34:17.029Z,8.97
2023-02-12T11:36:48.198Z,8.99
2023-02-12T11:39:24.744Z,9.02
2023-02-12T11:42:01.913Z,9.04
2023-02-12T11:44:40.912Z,9.09
2023-02-12T11:47:17.700Z,9.13
2023-02-12T11:50:20.785Z,9.20
2023-02-12T11:52:52.698Z,9.21
2023-02-12T11:55:34.084Z,9.28
2023-02-12T11:58:16.160Z,9.29
2023-02-12T12:01:06.392Z,9.29
2023-02-12T12:04:08.026Z,9.33
2023-02-12T12:06:43.143Z,9.29
2023-02-12T12:09:41.634Z,9.30
2023-02-12T12:12:23.636Z,9.30
2023-02-12T12:15:34.260Z,9.34
2023-02-12T12:18:45.752Z,9.36
2023-02-12T12:21:50.864Z,9.43
2023-02-12T12:24:31.928Z,9.41
2023-02-12T12:27:35.407Z,9.43
2023-02-12T12:30:11.209Z,9.45
2023-02-12T12:32:42.365Z,9.43
2023-02-12T12:35:14.793Z,9.49
2023-02-12T12:38:08.462Z,9.54
2023-02-12T12:40:51.341Z,9.51
2023-02-12T12:44:14.158Z,9.41
2023-02-12T12:46:52.605Z,9.46
2023-02-12T12:49:40.466Z,9.54
2023-02-12T12:52:46.886Z,9.60
2023-02-12T12:55:58.009Z,9.64
2023-02-12T12:58:51.648Z,9.74
2023-02-12T13:01:53.610Z,9.83
2023-02-12T13:05:02.811Z,9.87
2023-02-12T13:08:06.916Z,9.82
2023-02-12T13:11:06.003Z,9.81
2023-02-12T13:13:36.469Z,9.83
2023-02-12T13:16:16.228Z,9.90
2023-02-12T13:19:19.857Z,9.96
2023-02-12T13:22:11.425Z,9.94
2023-02-12T13:24:55.195Z,9.94
2023-02-12T13:27:27.966Z,9.95
2023-02-12T13:30:18.361Z,10.02
2023-02-12T13:33:06.141Z,10.05
2023-02-12T13:35:39.113Z,10.08
2023-02-12T13:38:09.458Z,9.95
2023-02-12T13:40:37.559Z,10.02
2023-02-12T13:43:34.113Z,10.07
2023-02-12T13:46:16.654Z,9.77
2023-02-12T13:49:24.270Z,9.67
2023-02-12T13:52:26.832Z,9.73
2023-02-12T13:55:09.553Z,9.82
2023-02-12T13:57:37.167Z,9.90
2023-02-12T14:00:09.739Z,9.99
2023-02-12T14:02:42.950Z,10.06
2023-02-12T14:05:21.955Z,10.13
2023-02-12T14:07:52.590Z,10.16
2023-02-12T14:10:29.676Z,10.01
2023-02-12T14:13:14.371Z,9.99
2023-02-12T14:15:46.929Z,10.03
2023-02-12T14:18:36.483Z,10.03
2023-02-12T14:21:13.237Z,10.11
2023-02-12T14:23:50.751Z,10.26
2023-02-12T14:26:20.949Z,10.32
2023-02-12T14:29:00.760Z,10.45
2023-02-12T14:31:35.211Z,10.41
2023-02-12T14:34:06.105Z,10.36
2023-02-12T14:36:33.783Z,10.37
2023-02-12T14:39:25.907Z,10.41
2023-02-12T14:41:57.396Z,10.38
2023-02-12T14:44:27.590Z,10.18
2023-02-12T14:47:05.150Z,10.25
2023-02-12T14:49:50.191Z,10.23
2023-02-12T14:52:23.915Z,10.21
2023-02-12T14:54:56.759Z,10.22
2023-02-12T14:57:40.957Z,10.09
2023-02-12T15:00:17.840Z,10.10
2023-02-12T15:03:03.243Z,9.99
2023-02-12T15:06:07.480Z,9.76
2023-02-12T15:08:53.845Z,9.71
2023-02-12T15:11:33.508Z,9.41
2023-02-12T15:14:27.241Z,9.38
2023-02-12T15:17:10.105Z,9.35
2023-02-12T15:20:08.564Z,9.34
2023-02-12T15:22:43.506Z,9.30
2023-02-12T15:25:30.234Z,9.34
2023-02-12T15:28:25.894Z,9.41
2023-02-12T15:30:56.323Z,9.56
2023-02-12T15:33:31.960Z,9.54
2023-02-12T15:36:01.894Z,9.62
2023-02-12T15:38:37.598Z,9.64
2023-02-12T15:41:06.720Z,9.68
2023-02-12T15:43:41.309Z,9.58
2023-02-12T15:46:18.124Z,9.56
2023-02-12T15:48:46.268Z,9.49
2023-02-12T15:51:38.712Z,9.54
2023-02-12T15:54:07.491Z,9.52
2023-02-12T15:56:36.439Z,9.53
2023-02-12T15:59:04.737Z,9.48
2023-02-12T16:01:35.366Z,9.50
2023-02-12T16:04:08.502Z,9.43
2023-02-12T16:06:37.073Z,9.35
2023-02-12T16:09:04.634Z,9.35
2023-02-12T16:11:33.846Z,9.33
2023-02-12T16:14:08.918Z,9.34
2023-02-12T16:16:49.763Z,9.32
2023-02-12T16:19:25.151Z,9.30
2023-02-12T16:22:10.671Z,9.31
2023-02-12T16:24:46.754Z,9.32
2023-02-12T16:27:23.124Z,9.29
2023-02-12T16:29:55.510Z,9.27
2023-02-12T16:32:30.669Z,9.21
2023-02-12T16:35:18.590Z,9.09
2023-02-12T16:37:56.459Z,9.09
2023-02-12T16:40:31.918Z,9.00
2023-02-12T16:43:04.687Z,8.97
2023-02-12T16:45:32.405Z,8.98
2023-02-12T16:48:23.421Z,8.94
2023-02-12T16:50:59.445Z,8.90
2023-02-12T16:53:34.251Z,8.93
2023-02-12T16:56:04.478Z,8.91
2023-02-12T16:58:32.310Z,8.88
2023-02-12T17:01:03.989Z,8.79
2023-02-12T17:03:31.844Z,8.74
2023-02-12T17:05:59.605Z,8.72
2023-02-12T17:08:27.432Z,8.75
2023-02-12T17:10:55.136Z,8.73
2023-02-12T17:13:22.834Z,8.74
2023-02-12T17:15:58.452Z,8.76
2023-02-12T17:18:26.586Z,8.67
2023-02-12T17:21:06.196Z,8.68
2023-02-12T17:23:35.131Z,8.69
2023-02-12T17:26:03.000Z,8.68
2023-02-12T17:28:31.937Z,8.69
2023-02-12T17:31:03.141Z,8.70
2023-02-12T17:33:30.824Z,8.67
2023-02-12T17:35:59.747Z,8.67
2023-02-12T17:38:27.649Z,8.60
2023-02-12T17:40:55.720Z,8.60
2023-02-12T17:43:23.865Z,8.61
2023-02-12T17:45:53.239Z,8.62
2023-02-12T17:48:23.429Z,8.62
2023-02-12T17:50:58.507Z,8.58
2023-02-12T17:53:26.428Z,8.63
2023-02-12T17:55:54.394Z,8.58
2023-02-12T17:58:22.051Z,8.60
2023-02-12T18:00:49.885Z,8.62
2023-02-12T18:03:17.640Z,8.63
2023-02-12T18:05:45.892Z,8.64
2023-02-12T18:08:13.607Z,8.63
2023-02-12T18:10:45.185Z,8.65
2023-02-12T18:13:14.108Z,8.61
2023-02-12T18:15:42.169Z,8.64
2023-02-12T18:18:10.183Z,8.64
2023-02-12T18:20:41.040Z,8.63
2023-02-12T18:23:09.262Z,8.63
2023-02-12T18:25:42.077Z,8.62
2023-02-12T18:28:11.432Z,8.60
2023-02-12T18:30:42.733Z,8.60
2023-02-12T18:33:12.588Z,8.60
2023-02-12T18:35:41.834Z,8.55
2023-02-12T18:38:09.471Z,8.52
2023-02-12T18:40:41.277Z,8.53
2023-02-12T18:43:08.988Z,8.51
2023-02-12T18:45:40.697Z,8.51
2023-02-12T18:48:09.330Z,8.51
2023-02-12T18:50:37.420Z,8.51
2023-02-12T18:53:05.330Z,8.49
2023-02-12T18:55:32.989Z,8.41
2023-02-12T18:58:00.667Z,8.51
2023-02-12T19:00:28.436Z,8.51
2023-02-12T19:02:56.128Z,8.52
2023-02-12T19:05:23.917Z,8.53
2023-02-12T19:07:52.481Z,8.47
2023-02-12T19:10:20.226Z,8.46
2023-02-12T19:12:48.031Z,8.44
2023-02-12T19:15:16.865Z,8.43
2023-02-12T19:17:44.546Z,8.45
2023-02-12T19:20:13.608Z,8.40
2023-02-12T19:22:42.771Z,8.38
2023-02-12T19:25:11.091Z,8.38
2023-02-12T19:27:38.719Z,8.40
2023-02-12T19:30:07.688Z,8.39
2023-02-12T19:32:37.899Z,8.41
2023-02-12T19:35:06.168Z,8.40
2023-02-12T19:37:33.888Z,8.42
2023-02-12T19:40:01.566Z,8.42
2023-02-12T19:42:29.365Z,8.43
2023-02-12T19:44:57.024Z,8.44
2023-02-12T19:47:24.674Z,8.43
2023-02-12T19:49:52.371Z,8.42
2023-02-12T19:52:19.991Z,8.44
2023-02-12T19:54:47.673Z,8.42
2023-02-12T19:57:15.722Z,8.43
2023-02-12T19:59:46.397Z,8.40
2023-02-12T20:02:14.035Z,8.36
2023-02-12T20:04:42.005Z,8.36
2023-02-12T20:07:10.071Z,8.33
2023-02-12T20:09:37.716Z,8.35
2023-02-12T20:12:05.924Z,8.35
2023-02-12T20:14:33.637Z,8.35
2023-02-12T20:17:01.308Z,8.33
2023-02-12T20:19:32.091Z,8.31
2023-02-12T20:22:01.635Z,8.29
2023-02-12T20:24:33.435Z,8.28
2023-02-12T20:27:02.995Z,8.27
2023-02-12T20:29:30.698Z,8.26
2023-02-12T20:31:58.596Z,8.19
2023-02-12T20:34:26.375Z,8.15
2023-02-12T20:36:54.341Z,8.15
2023-02-12T20:39:22.315Z,8.12
2023-02-12T20:41:50.307Z,8.01
2023-02-12T20:44:21.308Z,8.04
2023-02-12T20:46:55.771Z,8.00
2023-02-12T20:49:25.216Z,8.06
2023-02-12T20:51:53.099Z,7.99
2023-02-12T20:54:21.076Z,8.04
2023-02-12T20:56:50.660Z,8.07
2023-02-12T20:59:18.922Z,8.08
2023-02-12T21:01:47.391Z,8.03
2023-02-12T21:04:18.462Z,8.00
2023-02-12T21:06:48.347Z,8.00
2023-02-12T21:09:16.972Z,7.98
2023-02-12T21:11:45.843Z,7.96
2023-02-12T21:14:23.527Z,7.93
2023-02-12T21:16:54.656Z,7.84
2023-02-12T21:19:23.424Z,7.86
2023-02-12T21:21:51.419Z,7.94
2023-02-12T21:24:25.537Z,7.88
2023-02-12T21:26:55.043Z,7.85
2023-02-12T21:29:23.621Z,7.81
2023-02-12T21:31:51.869Z,7.79
2023-02-12T21:34:22.822Z,7.80
2023-02-12T21:36:53.699Z,7.84
2023-02-12T21:39:28.158Z,7.82
2023-02-12T21:42:05.226Z,7.79
2023-02-12T21:44:35.701Z,7.78
2023-02-12T21:47:04.251Z,7.77
2023-02-12T21:49:31.996Z,7.78
2023-02-12T21:52:03.212Z,7.75
2023-02-12T21:54:31.154Z,7.75
2023-02-12T21:56:59.913Z,7.75
2023-02-12T21:59:30.829Z,7.78
2023-02-12T22:02:00.735Z,7.76
2023-02-12T22:04:29.036Z,7.74
2023-02-12T22:06:58.011Z,7.63
2023-02-12T22:09:25.789Z,7.64
2023-02-12T22:11:53.488Z,7.71
2023-02-12T22:14:22.534Z,7.71
2023-02-12T22:16:50.993Z,7.70
2023-02-12T22:19:18.832Z,7.69
2023-02-12T22:21:46.581Z,7.70
2023-02-12T22:24:16.093Z,7.75
2023-02-12T22:26:44.655Z,7.77
2023-02-12T22:29:15.764Z,7.66
2023-02-12T22:31:46.215Z,7.62
2023-02-12T22:34:17.290Z,7.64
2023-02-12T22:36:46.301Z,7.63
2023-02-12T22:39:14.983Z,7.62
2023-02-12T22:41:43.000Z,7.58
2023-02-12T22:44:13.229Z,7.63
2023-02-12T22:46:43.176Z,7.68
2023-02-12T22:49:11.151Z,7.70
2023-02-12T22:51:41.722Z,7.68
2023-02-12T22:54:15.165Z,7.71
2023-02-12T22:56:43.661Z,7.71
2023-02-12T22:59:12.762Z,7.68
2023-02-12T23:01:40.760Z,7.67
2023-02-12T23:04:14.218Z,7.70
2023-02-12T23:06:42.510Z,7.67
2023-02-12T23:09:14.392Z,7.67
2023-02-12T23:11:42.042Z,7.68
2023-02-12T23:14:09.695Z,7.71
2023-02-12T23:16:37.621Z,7.72
2023-02-12T23:19:05.420Z,7.75
2023-02-12T23:21:33.226Z,7.70
2023-02-12T23:24:01.272Z,7.73
2023-02-12T23:26:30.256Z,7.75
2023-02-12T23:28:58.867Z,7.75
2023-02-12T23:31:26.720Z,7.68
2023-02-12T23:33:54.555Z,7.65
2023-02-12T23:36:22.698Z,7.62
2023-02-12T23:38:50.424Z,7.62
2023-02-12T23:41:18.187Z,7.53
2023-02-12T23:43:45.830Z,7.56
2023-02-12T23:46:13.508Z,7.50
2023-02-12T23:48:41.356Z,7.49
2023-02-12T23:51:09.010Z,7.48
2023-02-12T23:53:36.842Z,7.45
2023-02-12T23:56:04.667Z,7.45
2023-02-12T23:58:32.352Z,7.48
